createdAt,value
2018-10-16T00:01:04.955Z,8.53
2018-10-16T00:03:34.539Z,7.57
2018-10-16T00:06:04.262Z,7.33
2018-10-16T00:08:33.829Z,9.23
2018-10-16T00:11:03.486Z,7.60
2018-10-16T00:13:33.053Z,8.83
2018-10-16T00:16:02.858Z,6.63
2018-10-16T00:18:32.481Z,8.90
2018-10-16T00:21:02.087Z,8.13
2018-10-16T00:23:31.677Z,7.73
2018-10-16T00:26:01.385Z,8.30
2018-10-16T00:28:31.024Z,8.23
2018-10-16T00:31:00.701Z,8.83
2018-10-16T00:33:30.351Z,8.93
2018-10-16T00:35:59.921Z,8.47
2018-10-16T00:38:29.835Z,8.40
2018-10-16T00:40:59.546Z,8.70
2018-10-16T00:43:29.357Z,8.60
2018-10-16T00:45:58.975Z,7.60
2018-10-16T00:48:28.670Z,8.07
2018-10-16T00:50:58.287Z,9.37
2018-10-16T00:53:27.819Z,8.13
2018-10-16T00:55:58.077Z,8.23
2018-10-16T00:58:27.919Z,8.40
2018-10-16T01:00:57.538Z,9.07
2018-10-16T01:03:27.157Z,8.80
2018-10-16T01:05:56.777Z,8.53
2018-10-16T01:08:26.516Z,8.17
2018-10-16T01:10:55.956Z,9.03
2018-10-16T01:13:25.583Z,8.77
2018-10-16T01:15:55.183Z,9.30
2018-10-16T01:18:25.309Z,9.30
2018-10-16T01:20:55.004Z,8.53
2018-10-16T01:23:24.834Z,7.50
2018-10-16T01:25:54.514Z,8.53
2018-10-16T01:28:24.109Z,8.50
2018-10-16T01:30:53.757Z,8.27
2018-10-16T01:33:23.500Z,8.40
2018-10-16T01:35:53.259Z,8.57
2018-10-16T01:38:22.869Z,8.93
2018-10-16T01:40:52.608Z,8.30
2018-10-16T01:43:22.426Z,9.13
2018-10-16T01:45:52.004Z,8.20
2018-10-16T01:48:21.746Z,7.87
2018-10-16T01:50:51.480Z,9.50
2018-10-16T01:53:21.233Z,9.23
2018-10-16T01:55:50.765Z,10.20
2018-10-16T01:58:20.439Z,8.00
2018-10-16T02:00:50.125Z,8.43
2018-10-16T02:03:19.786Z,9.00
2018-10-16T02:05:50.289Z,8.47
2018-10-16T02:08:19.829Z,9.43
2018-10-16T02:10:49.514Z,9.40
2018-10-16T02:13:19.065Z,8.53
2018-10-16T02:15:49.321Z,8.67
2018-10-16T02:18:18.987Z,7.60
2018-10-16T02:20:48.813Z,8.63
2018-10-16T02:23:18.473Z,9.30
2018-10-16T02:25:48.077Z,9.33
2018-10-16T02:28:17.618Z,9.80
2018-10-16T02:30:47.447Z,8.30
2018-10-16T02:33:17.235Z,8.53
2018-10-16T02:35:46.850Z,8.97
2018-10-16T02:38:16.583Z,8.43
2018-10-16T02:40:46.242Z,8.47
2018-10-16T02:43:16.205Z,9.47
2018-10-16T02:45:45.799Z,9.50
2018-10-16T02:48:15.438Z,8.53
2018-10-16T02:50:45.116Z,9.70
2018-10-16T02:53:14.814Z,8.77
2018-10-16T02:55:44.517Z,9.90
2018-10-16T02:58:14.219Z,8.87
2018-10-16T03:00:43.921Z,9.83
2018-10-16T03:03:13.542Z,8.53
2018-10-16T03:05:43.456Z,7.63
2018-10-16T03:08:13.247Z,8.83
2018-10-16T03:10:43.375Z,8.87
2018-10-16T03:13:12.926Z,8.87
2018-10-16T03:15:42.723Z,8.63
2018-10-16T03:18:12.328Z,9.37
2018-10-16T03:20:42.187Z,9.67
2018-10-16T03:23:11.765Z,9.73
2018-10-16T03:25:41.326Z,8.63
2018-10-16T03:28:11.204Z,9.80
2018-10-16T03:30:40.912Z,8.90
2018-10-16T03:33:10.573Z,9.20
2018-10-16T03:35:40.205Z,9.10
2018-10-16T03:38:10.237Z,9.50
2018-10-16T03:40:39.894Z,8.40
2018-10-16T03:43:09.346Z,9.40
2018-10-16T03:45:38.885Z,8.90
2018-10-16T03:48:08.353Z,9.60
2018-10-16T03:50:37.922Z,9.00
2018-10-16T03:53:07.929Z,8.00
2018-10-16T03:55:37.417Z,9.13
2018-10-16T03:58:07.156Z,9.03
2018-10-16T04:00:36.796Z,10.53
2018-10-16T04:03:07.109Z,8.27
2018-10-16T04:05:36.585Z,7.60
2018-10-16T04:08:06.264Z,10.03
2018-10-16T04:10:35.812Z,9.37
2018-10-16T04:13:06.662Z,9.23
2018-10-16T04:15:36.242Z,8.60
2018-10-16T04:18:06.258Z,9.60
2018-10-16T04:20:35.897Z,8.97
2018-10-16T04:23:05.518Z,9.60
2018-10-16T04:25:35.467Z,9.57
2018-10-16T04:28:05.322Z,9.30
2018-10-16T04:30:34.985Z,9.30
2018-10-16T04:33:04.639Z,8.90
2018-10-16T04:35:34.250Z,10.07
2018-10-16T04:38:03.965Z,9.70
2018-10-16T04:40:33.671Z,9.53
2018-10-16T04:43:03.679Z,9.27
2018-10-16T04:45:33.309Z,8.77
2018-10-16T04:48:02.792Z,9.47
2018-10-16T04:50:32.285Z,9.40
2018-10-16T04:53:02.034Z,9.20
2018-10-16T04:55:31.724Z,9.53
2018-10-16T04:58:01.910Z,9.90
2018-10-16T05:00:31.680Z,9.40
2018-10-16T05:03:02.120Z,9.50
2018-10-16T05:05:32.325Z,10.00
2018-10-16T05:08:01.936Z,9.57
2018-10-16T05:10:31.631Z,9.40
2018-10-16T05:13:01.498Z,10.60
2018-10-16T05:15:32.396Z,8.83
2018-10-16T05:18:02.518Z,9.67
2018-10-16T05:20:32.206Z,8.90
2018-10-16T05:23:02.971Z,9.27
2018-10-16T05:25:32.641Z,9.40
2018-10-16T05:28:02.242Z,9.97
2018-10-16T05:30:31.901Z,10.40
2018-10-16T05:33:01.458Z,9.00
2018-10-16T05:35:31.020Z,9.37
2018-10-16T05:38:00.685Z,9.10
2018-10-16T05:40:30.334Z,10.33
2018-10-16T05:43:00.394Z,8.90
2018-10-16T05:45:32.649Z,11.00
2018-10-16T05:48:02.317Z,9.23
2018-10-16T05:50:31.918Z,10.07
2018-10-16T05:53:01.611Z,9.87
2018-10-16T05:55:31.228Z,9.27
2018-10-16T05:58:01.117Z,9.33
2018-10-16T06:00:44.530Z,9.57
2018-10-16T06:03:14.133Z,9.27
2018-10-16T06:05:44.580Z,9.93
2018-10-16T06:08:14.090Z,10.23
2018-10-16T06:10:43.863Z,10.57
2018-10-16T06:13:13.561Z,11.83
2018-10-16T06:15:43.124Z,10.23
2018-10-16T06:18:12.689Z,8.87
2018-10-16T06:20:42.485Z,8.90
2018-10-16T06:23:12.090Z,8.53
2018-10-16T06:25:41.690Z,9.33
2018-10-16T06:28:20.778Z,10.00
2018-10-16T06:30:50.594Z,8.40
2018-10-16T06:33:23.728Z,9.20
2018-10-16T06:35:53.432Z,9.10
2018-10-16T06:38:22.938Z,8.80
2018-10-16T06:40:52.743Z,9.00
2018-10-16T06:43:22.361Z,8.90
2018-10-16T06:45:52.045Z,8.90
2018-10-16T06:48:21.986Z,9.80
2018-10-16T06:50:51.469Z,8.10
2018-10-16T06:53:21.073Z,8.53
2018-10-16T06:55:50.631Z,9.90
2018-10-16T06:58:20.205Z,9.07
2018-10-16T07:00:49.823Z,9.37
2018-10-16T07:03:19.549Z,9.57
2018-10-16T07:05:49.750Z,8.60
2018-10-16T07:08:19.329Z,8.17
2018-10-16T07:10:48.844Z,7.10
2018-10-16T07:13:18.597Z,7.63
2018-10-16T07:15:48.192Z,7.03
2018-10-16T07:18:18.038Z,8.67
2018-10-16T07:20:47.708Z,6.87
2018-10-16T07:23:17.226Z,6.93
2018-10-16T07:25:46.883Z,7.03
2018-10-16T07:28:16.498Z,7.17
2018-10-16T07:30:46.721Z,8.13
2018-10-16T07:33:16.339Z,7.03
2018-10-16T07:35:45.938Z,7.60
2018-10-16T07:38:16.089Z,8.90
2018-10-16T07:40:45.985Z,8.40
2018-10-16T07:43:15.472Z,9.23
2018-10-16T07:45:45.107Z,9.13
2018-10-16T07:48:14.770Z,8.77
2018-10-16T07:50:44.312Z,8.53
2018-10-16T07:53:13.928Z,8.07
2018-10-16T07:55:43.728Z,8.77
2018-10-16T07:58:13.331Z,7.90
2018-10-16T08:00:43.414Z,8.97
2018-10-16T08:03:14.037Z,8.67
2018-10-16T08:05:44.000Z,8.90
2018-10-16T08:08:14.818Z,8.97
2018-10-16T08:10:44.421Z,7.77
2018-10-16T08:13:14.053Z,8.70
2018-10-16T08:15:43.614Z,8.40
2018-10-16T08:18:13.497Z,8.10
2018-10-16T08:20:43.255Z,8.43
2018-10-16T08:23:13.136Z,7.87
2018-10-16T08:25:42.901Z,8.10
2018-10-16T08:28:12.495Z,8.67
2018-10-16T08:30:42.220Z,8.50
2018-10-16T08:33:11.830Z,8.50
2018-10-16T08:35:42.374Z,8.43
2018-10-16T08:40:20.272Z,7.60
2018-10-16T08:44:05.513Z,8.73
2018-10-16T08:46:51.954Z,7.60
2018-10-16T08:49:38.459Z,8.10
2018-10-16T08:52:07.961Z,7.77
2018-10-16T08:54:37.667Z,8.17
2018-10-16T08:57:07.346Z,7.20
2018-10-16T08:59:37.006Z,7.17
2018-10-16T09:02:06.733Z,7.37
2018-10-16T09:04:36.405Z,8.17
2018-10-16T09:07:06.273Z,8.23
2018-10-16T09:09:36.076Z,7.80
2018-10-16T09:12:06.194Z,7.73
2018-10-16T09:14:35.830Z,8.40
2018-10-16T09:17:05.596Z,8.43
2018-10-16T09:19:35.131Z,7.87
2018-10-16T09:22:04.845Z,10.10
2018-10-16T09:24:34.635Z,8.67
2018-10-16T09:27:04.344Z,8.30
2018-10-16T09:29:33.947Z,8.03
2018-10-16T09:32:03.562Z,8.33
2018-10-16T09:34:33.261Z,8.70
2018-10-16T09:37:02.977Z,7.70
2018-10-16T09:39:32.673Z,7.40
2018-10-16T09:42:08.890Z,8.20
2018-10-16T09:44:38.487Z,8.33
2018-10-16T09:47:08.049Z,8.73
2018-10-16T09:49:37.861Z,7.90
2018-10-16T09:52:07.625Z,8.50
2018-10-16T09:54:37.284Z,7.40
2018-10-16T09:57:07.213Z,6.03
2018-10-16T09:59:36.943Z,6.90
2018-10-16T10:02:06.829Z,6.67
2018-10-16T10:04:36.517Z,7.93
2018-10-16T10:07:06.416Z,6.40
2018-10-16T10:09:36.116Z,6.27
2018-10-16T10:12:05.770Z,5.90
2018-10-16T10:14:35.509Z,5.63
2018-10-16T10:17:05.233Z,6.37
2018-10-16T10:19:34.883Z,5.80
2018-10-16T10:22:04.650Z,5.30
2018-10-16T10:24:34.268Z,4.67
2018-10-16T10:27:03.960Z,5.40
2018-10-16T10:29:33.752Z,5.27
2018-10-16T10:32:03.540Z,6.30
2018-10-16T10:34:33.070Z,19.20
2018-10-16T10:37:02.666Z,6.63
2018-10-16T10:39:32.934Z,6.03
2018-10-16T10:42:03.179Z,9.70
2018-10-16T10:44:32.709Z,4.73
2018-10-16T10:47:02.545Z,4.90
2018-10-16T10:49:32.164Z,4.70
2018-10-16T10:52:01.848Z,4.13
2018-10-16T10:54:31.544Z,4.13
2018-10-16T10:57:01.229Z,4.37
2018-10-16T10:59:30.687Z,3.80
2018-10-16T11:02:00.462Z,4.47
2018-10-16T11:04:29.919Z,4.10
2018-10-16T11:06:59.580Z,4.53
2018-10-16T11:09:29.084Z,4.57
2018-10-16T11:11:59.425Z,4.37
2018-10-16T11:14:29.165Z,3.90
2018-10-16T11:16:58.895Z,3.97
2018-10-16T11:19:28.654Z,3.57
2018-10-16T11:21:58.356Z,3.70
2018-10-16T11:24:28.071Z,4.13
2018-10-16T11:26:58.638Z,4.30
2018-10-16T11:29:28.130Z,4.17
2018-10-16T11:31:57.846Z,4.27
2018-10-16T11:34:27.639Z,4.63
2018-10-16T11:36:57.201Z,4.40
2018-10-16T11:39:26.972Z,4.67
2018-10-16T11:41:56.488Z,4.60
2018-10-16T11:44:26.720Z,6.20
2018-10-16T11:46:56.395Z,4.80
2018-10-16T11:49:26.113Z,4.60
2018-10-16T11:51:55.861Z,4.60
2018-10-16T11:54:25.535Z,4.70
2018-10-16T11:56:55.143Z,5.30
2018-10-16T11:59:24.857Z,4.83
2018-10-16T12:01:54.405Z,5.40
2018-10-16T12:04:24.012Z,6.07
2018-10-16T12:06:53.789Z,6.00
2018-10-16T12:09:23.692Z,5.57
2018-10-16T12:11:54.000Z,5.30
2018-10-16T12:14:23.642Z,5.50
2018-10-16T12:17:58.212Z,4.80
2018-10-16T12:20:30.897Z,5.57
2018-10-16T12:23:00.579Z,6.43
2018-10-16T12:25:30.563Z,5.53
2018-10-16T12:28:00.307Z,5.77
2018-10-16T12:30:29.980Z,4.70
2018-10-16T12:32:59.491Z,4.97
2018-10-16T12:35:29.211Z,5.20
2018-10-16T12:37:58.914Z,4.53
2018-10-16T12:40:28.646Z,4.80
2018-10-16T12:42:58.376Z,6.30
2018-10-16T12:45:28.888Z,5.27
2018-10-16T12:47:58.715Z,5.27
2018-10-16T12:50:28.915Z,5.57
2018-10-16T12:52:59.370Z,5.47
2018-10-16T12:55:29.184Z,5.13
2018-10-16T12:57:59.051Z,5.23
2018-10-16T13:00:28.738Z,5.20
2018-10-16T13:03:01.627Z,6.50
2018-10-16T13:05:31.409Z,6.20
2018-10-16T13:08:01.611Z,4.83
2018-10-16T13:10:31.761Z,5.17
2018-10-16T13:13:01.400Z,5.80
2018-10-16T13:15:31.305Z,5.20
2018-10-16T13:18:00.943Z,5.13
2018-10-16T13:20:30.996Z,5.00
2018-10-16T13:23:00.755Z,6.07
2018-10-16T13:25:30.564Z,5.40
2018-10-16T13:28:00.319Z,5.93
2018-10-16T13:30:29.836Z,5.20
2018-10-16T13:32:59.440Z,6.40
2018-10-16T13:35:29.246Z,5.70
2018-10-16T13:37:58.884Z,5.27
2018-10-16T13:40:28.436Z,5.63
2018-10-16T13:42:58.060Z,5.97
2018-10-16T13:45:27.732Z,5.60
2018-10-16T13:47:57.534Z,6.23
2018-10-16T13:50:27.220Z,6.47
2018-10-16T13:52:57.499Z,5.37
2018-10-16T13:55:27.511Z,5.97
2018-10-16T13:57:57.139Z,6.43
2018-10-16T14:00:26.837Z,6.50
2018-10-16T14:02:56.342Z,6.80
2018-10-16T14:05:26.279Z,6.90
2018-10-16T14:07:55.952Z,5.60
2018-10-16T14:10:25.717Z,6.13
2018-10-16T14:12:55.365Z,5.07
2018-10-16T14:15:25.071Z,5.80
2018-10-16T14:17:54.762Z,5.73
2018-10-16T14:20:24.529Z,5.37
2018-10-16T14:22:54.425Z,6.80
2018-10-16T14:25:24.233Z,4.93
2018-10-16T14:27:56.991Z,5.83
2018-10-16T14:30:26.681Z,5.47
2018-10-16T14:32:56.482Z,5.23
2018-10-16T14:35:26.789Z,5.90
2018-10-16T14:37:56.675Z,6.03
2018-10-16T14:40:26.618Z,5.27
2018-10-16T14:42:56.181Z,5.40
2018-10-16T14:45:25.891Z,5.53
2018-10-16T14:47:55.656Z,5.90
2018-10-16T14:50:25.357Z,5.67
2018-10-16T14:52:55.037Z,5.80
2018-10-16T14:55:24.888Z,5.10
2018-10-16T14:57:54.508Z,5.57
2018-10-16T15:00:24.234Z,4.80
2018-10-16T15:02:53.978Z,7.60
2018-10-16T15:05:30.714Z,5.60
2018-10-16T15:08:00.908Z,6.33
2018-10-16T15:10:30.749Z,5.90
2018-10-16T15:13:00.391Z,6.27
2018-10-16T15:15:30.137Z,5.20
2018-10-16T15:17:59.920Z,5.77
2018-10-16T15:20:29.544Z,6.03
2018-10-16T15:22:59.332Z,5.73
2018-10-16T15:25:28.961Z,5.77
2018-10-16T15:27:58.743Z,6.00
2018-10-16T15:30:28.281Z,6.20
2018-10-16T15:32:57.850Z,5.80
2018-10-16T15:35:27.700Z,6.30
2018-10-16T15:37:57.301Z,6.20
2018-10-16T15:40:26.952Z,5.20
2018-10-16T15:42:56.712Z,5.80
2018-10-16T15:45:26.332Z,5.83
2018-10-16T15:47:56.260Z,5.77
2018-10-16T15:50:26.043Z,5.93
2018-10-16T15:52:55.745Z,6.97
2018-10-16T15:55:25.362Z,5.83
2018-10-16T15:57:55.325Z,6.03
2018-10-16T16:00:24.994Z,6.10
2018-10-16T16:02:54.793Z,6.10
2018-10-16T16:05:24.513Z,6.27
2018-10-16T16:07:54.822Z,6.17
2018-10-16T16:10:24.835Z,7.00
2018-10-16T16:12:54.314Z,6.33
2018-10-16T16:15:24.080Z,5.87
2018-10-16T16:17:53.934Z,6.37
2018-10-16T16:20:23.614Z,7.03
2018-10-16T16:22:53.142Z,6.83
2018-10-16T16:25:22.795Z,7.97
2018-10-16T16:27:52.527Z,9.00
2018-10-16T16:30:22.076Z,8.40
2018-10-16T16:32:51.753Z,7.23
2018-10-16T16:35:21.431Z,7.93
2018-10-16T16:37:51.171Z,6.87
2018-10-16T16:40:20.812Z,7.30
2018-10-16T16:42:50.710Z,7.57
2018-10-16T16:45:20.282Z,7.30
2018-10-16T16:47:49.922Z,7.43
2018-10-16T16:50:19.598Z,8.70
2018-10-16T16:52:49.365Z,7.63
2018-10-16T16:55:19.122Z,7.57
2018-10-16T16:57:48.872Z,7.13
2018-10-16T17:00:18.570Z,6.40
2018-10-16T17:02:48.156Z,7.10
2018-10-16T17:05:17.989Z,5.97
2018-10-16T17:07:47.839Z,7.60
2018-10-16T17:10:17.588Z,6.20
2018-10-16T17:12:47.549Z,7.20
2018-10-16T17:15:17.347Z,6.17
2018-10-16T17:17:47.628Z,7.30
2018-10-16T17:20:17.144Z,6.33
2018-10-16T17:22:46.794Z,6.50
2018-10-16T17:25:16.535Z,7.03
2018-10-16T17:27:46.195Z,6.93
2018-10-16T17:30:17.428Z,7.00
2018-10-16T17:32:47.295Z,7.83
2018-10-16T17:35:16.889Z,6.53
2018-10-16T17:37:46.575Z,6.00
2018-10-16T17:40:17.399Z,6.93
2018-10-16T17:42:47.217Z,6.83
2018-10-16T17:45:17.763Z,7.70
2018-10-16T17:47:47.497Z,7.47
2018-10-16T17:50:18.601Z,7.07
2018-10-16T17:52:48.938Z,7.23
2018-10-16T17:55:18.731Z,6.90
2018-10-16T17:57:48.387Z,7.90
2018-10-16T18:00:19.333Z,7.63
2018-10-16T18:02:49.081Z,7.27
2018-10-16T18:05:18.804Z,7.47
2018-10-16T18:07:48.515Z,7.70
2018-10-16T18:10:18.325Z,7.90
2018-10-16T18:12:48.094Z,7.30
2018-10-16T18:15:17.888Z,7.70
2018-10-16T18:17:47.537Z,7.30
2018-10-16T18:20:17.305Z,8.70
2018-10-16T18:22:47.098Z,8.10
2018-10-16T18:25:16.689Z,7.13
2018-10-16T18:27:46.721Z,6.53
2018-10-16T18:30:16.410Z,7.30
2018-10-16T18:32:46.840Z,7.07
2018-10-16T18:35:16.569Z,6.67
2018-10-16T18:37:46.660Z,7.40
2018-10-16T18:40:16.580Z,6.90
2018-10-16T18:42:46.686Z,6.63
2018-10-16T18:45:16.466Z,7.47
2018-10-16T18:47:46.390Z,6.80
2018-10-16T18:50:16.204Z,6.23
2018-10-16T18:52:46.865Z,6.50
2018-10-16T18:55:16.676Z,6.00
2018-10-16T18:57:46.405Z,6.43
2018-10-16T19:00:19.121Z,7.03
2018-10-16T19:02:49.308Z,6.37
2018-10-16T19:05:19.140Z,6.80
2018-10-16T19:07:48.904Z,7.40
2018-10-16T19:10:18.527Z,6.13
2018-10-16T19:12:48.280Z,6.20
2018-10-16T19:15:18.508Z,6.43
2018-10-16T19:17:48.162Z,6.53
2018-10-16T19:20:18.201Z,6.00
2018-10-16T19:22:48.262Z,6.53
2018-10-16T19:25:19.980Z,5.97
2018-10-16T19:27:49.794Z,6.57
2018-10-16T19:30:19.578Z,6.67
2018-10-16T19:32:49.337Z,5.47
2018-10-16T19:35:19.296Z,5.87
2018-10-16T19:37:49.437Z,5.13
2018-10-16T19:40:19.249Z,5.57
2018-10-16T19:42:49.292Z,6.30
2018-10-16T19:45:18.954Z,6.67
2018-10-16T19:47:48.563Z,5.90
2018-10-16T19:50:18.445Z,6.77
2018-10-16T19:52:48.324Z,5.90
2018-10-16T19:55:18.005Z,6.23
2018-10-16T19:57:47.867Z,5.77
2018-10-16T20:00:17.650Z,6.33
2018-10-16T20:02:48.032Z,5.60
2018-10-16T20:05:17.686Z,6.40
2018-10-16T20:07:47.765Z,5.43
2018-10-16T20:10:17.398Z,6.13
2018-10-16T20:12:47.229Z,5.93
2018-10-16T20:15:16.962Z,5.60
2018-10-16T20:17:46.890Z,4.60
2018-10-16T20:20:16.700Z,5.47
2018-10-16T20:22:46.609Z,5.43
2018-10-16T20:25:16.450Z,5.77
2018-10-16T20:27:46.027Z,6.40
2018-10-16T20:30:15.733Z,5.37
2018-10-16T20:32:45.620Z,5.70
2018-10-16T20:35:15.427Z,5.70
2018-10-16T20:37:45.199Z,5.60
2018-10-16T20:40:14.877Z,4.90
2018-10-16T20:42:44.527Z,4.63
2018-10-16T20:45:14.564Z,5.13
2018-10-16T20:47:44.792Z,5.47
2018-10-16T20:50:14.508Z,4.77
2018-10-16T20:52:44.095Z,5.63
2018-10-16T20:55:13.954Z,5.50
2018-10-16T20:57:44.805Z,4.40
2018-10-16T21:00:14.685Z,5.03
2018-10-16T21:02:44.414Z,5.53
2018-10-16T21:05:14.345Z,4.80
2018-10-16T21:07:43.881Z,4.80
2018-10-16T21:10:14.266Z,4.93
2018-10-16T21:12:44.168Z,4.60
2018-10-16T21:15:13.790Z,4.53
2018-10-16T21:17:43.653Z,4.30
2018-10-16T21:20:13.329Z,4.70
2018-10-16T21:22:42.934Z,4.23
2018-10-16T21:25:13.074Z,6.10
2018-10-16T21:27:42.487Z,4.90
2018-10-16T21:30:12.624Z,4.30
2018-10-16T21:32:42.258Z,5.10
2018-10-16T21:35:12.181Z,5.00
2018-10-16T21:37:41.769Z,4.30
2018-10-16T21:40:11.589Z,4.23
2018-10-16T21:42:41.186Z,4.10
2018-10-16T21:45:11.103Z,5.20
2018-10-16T21:47:40.755Z,4.10
2018-10-16T21:50:10.516Z,4.80
2018-10-16T21:52:40.149Z,4.27
2018-10-16T21:55:09.890Z,4.93
2018-10-16T21:57:39.425Z,3.93
2018-10-16T22:00:15.251Z,4.80
2018-10-16T22:02:48.867Z,4.40
2018-10-16T22:05:21.901Z,3.70
2018-10-16T22:07:53.979Z,4.30
2018-10-16T22:10:23.994Z,4.50
2018-10-16T22:12:53.950Z,4.30
2018-10-16T22:15:23.653Z,4.43
2018-10-16T22:17:53.268Z,4.40
2018-10-16T22:20:22.838Z,3.90
2018-10-16T22:22:52.488Z,4.57
2018-10-16T22:25:22.104Z,4.60
2018-10-16T22:27:51.835Z,3.97
2018-10-16T22:30:21.453Z,4.30
2018-10-16T22:32:51.195Z,4.60
2018-10-16T22:35:20.692Z,5.10
2018-10-16T22:37:50.321Z,4.00
2018-10-16T22:40:19.841Z,4.00
2018-10-16T22:42:49.460Z,5.00
2018-10-16T22:45:19.094Z,4.27
2018-10-16T22:47:48.549Z,4.80
2018-10-16T22:50:18.263Z,4.53
2018-10-16T22:52:47.890Z,6.33
2018-10-16T22:55:17.465Z,4.67
2018-10-16T22:57:47.034Z,4.27
2018-10-16T23:00:17.273Z,4.37
2018-10-16T23:02:47.953Z,5.10
2018-10-16T23:05:17.564Z,4.77
2018-10-16T23:07:47.622Z,4.17
2018-10-16T23:10:17.205Z,4.17
2018-10-16T23:12:50.948Z,4.40
2018-10-16T23:15:20.577Z,4.70
2018-10-16T23:17:50.800Z,5.10
2018-10-16T23:20:21.259Z,5.30
2018-10-16T23:22:57.394Z,5.13
2018-10-16T23:25:26.850Z,5.07
2018-10-16T23:27:56.449Z,4.13
2018-10-16T23:30:25.957Z,4.93
2018-10-16T23:32:55.610Z,4.83
2018-10-16T23:35:25.165Z,5.30
2018-10-16T23:37:54.899Z,4.40
2018-10-16T23:40:24.485Z,5.40
2018-10-16T23:42:54.121Z,5.17
2018-10-16T23:45:23.817Z,5.50
2018-10-16T23:47:53.565Z,5.80
2018-10-16T23:50:23.029Z,5.27
2018-10-16T23:52:52.657Z,4.70
2018-10-16T23:55:22.365Z,5.37
2018-10-16T23:57:52.022Z,5.97
